createdAt,value
2023-03-04T00:01:29.174Z,25.00
2023-03-04T00:04:35.365Z,25.00
2023-03-04T00:07:23.897Z,30.00
2023-03-04T00:10:52.055Z,35.00
2023-03-04T00:14:40.212Z,38.00
2023-03-04T00:17:31.579Z,28.00
2023-03-04T00:21:00.377Z,27.00
2023-03-04T00:24:33.104Z,32.00
2023-03-04T00:27:43.210Z,28.00
2023-03-04T00:31:07.986Z,29.00
2023-03-04T00:34:52.061Z,35.00
2023-03-04T00:38:19.158Z,29.50
2023-03-04T00:45:30.761Z,34.00
2023-03-04T00:48:28.636Z,34.00
2023-03-04T00:51:12.494Z,38.00
2023-03-04T00:54:41.469Z,30.00
2023-03-04T00:57:59.575Z,40.00
2023-03-04T01:00:49.199Z,32.00
2023-03-04T01:03:59.049Z,37.00
2023-03-04T01:07:48.218Z,33.50
2023-03-04T01:11:14.909Z,38.00
2023-03-04T01:14:44.002Z,36.00
2023-03-04T01:17:32.797Z,31.00
2023-03-04T01:23:09.587Z,35.00
2023-03-04T01:25:37.631Z,37.00
2023-03-04T01:28:05.743Z,38.00
2023-03-04T01:31:34.310Z,39.00
2023-03-04T01:34:02.795Z,36.00
2023-03-04T01:36:30.976Z,36.00
2023-03-04T01:38:59.655Z,39.00
2023-03-04T01:42:28.035Z,30.50
2023-03-04T01:45:56.312Z,35.00
2023-03-04T01:48:34.158Z,34.00
2023-03-04T01:51:23.493Z,24.00
2023-03-04T01:53:55.043Z,34.00
2023-03-04T01:56:28.229Z,34.50
2023-03-04T01:59:31.470Z,40.00
2023-03-04T02:02:39.789Z,30.00
2023-03-04T02:05:48.313Z,27.00
2023-03-04T02:08:57.444Z,24.00
2023-03-04T02:12:45.603Z,30.50
2023-03-04T02:16:02.139Z,23.00
2023-03-04T02:22:19.791Z,30.00
2023-03-04T02:25:03.574Z,28.50
2023-03-04T02:27:31.693Z,26.00
2023-03-04T02:29:59.683Z,34.00
2023-03-04T02:33:28.192Z,36.00
2023-03-04T02:36:56.625Z,40.00
2023-03-04T02:40:09.584Z,31.50
2023-03-04T02:45:49.966Z,29.00
2023-03-04T02:50:51.321Z,29.00
2023-03-04T02:53:40.642Z,31.00
2023-03-04T02:57:10.518Z,28.00
2023-03-04T03:00:58.399Z,39.00
2023-03-04T03:04:27.886Z,31.00
2023-03-04T03:07:24.055Z,35.00
2023-03-04T03:13:20.189Z,33.50
2023-03-04T03:16:52.872Z,36.00
2023-03-04T03:20:20.985Z,35.00
2023-03-04T03:23:23.345Z,31.00
2023-03-04T03:26:54.073Z,42.00
2023-03-04T03:30:38.123Z,29.00
2023-03-04T03:34:08.356Z,30.00
2023-03-04T03:37:04.596Z,32.00
2023-03-04T03:39:32.722Z,38.50
2023-03-04T03:42:00.860Z,42.50
2023-03-04T03:45:10.182Z,26.00
2023-03-04T03:47:39.213Z,45.00
2023-03-04T03:50:19.625Z,32.50
2023-03-04T03:52:47.640Z,37.00
2023-03-04T03:55:15.791Z,32.00
2023-03-04T03:57:44.652Z,46.50
2023-03-04T04:00:13.795Z,34.50
2023-03-04T04:02:42.286Z,28.00
2023-03-04T04:06:10.221Z,28.00
2023-03-04T04:09:39.064Z,32.00
2023-03-04T04:12:46.048Z,25.50
2023-03-04T04:19:19.498Z,23.50
2023-03-04T04:21:48.458Z,30.50
2023-03-04T04:25:14.003Z,31.00
2023-03-04T04:27:42.801Z,40.00
2023-03-04T04:32:39.151Z,39.50
2023-03-04T04:37:55.999Z,37.00
2023-03-04T04:40:24.212Z,34.00
2023-03-04T04:42:52.605Z,27.00
2023-03-04T04:45:21.364Z,41.00
2023-03-04T04:47:49.455Z,44.50
2023-03-04T04:50:17.575Z,31.00
2023-03-04T04:52:45.571Z,41.00
2023-03-04T04:55:34.600Z,35.00
2023-03-04T05:00:30.571Z,42.00
2023-03-04T05:03:39.145Z,40.00
2023-03-04T05:07:07.198Z,40.00
2023-03-04T05:10:25.255Z,25.50
2023-03-04T05:12:53.655Z,41.00
2023-03-04T05:16:22.081Z,39.00
2023-03-04T05:18:52.771Z,45.00
2023-03-04T05:21:20.922Z,43.00
2023-03-04T05:23:48.964Z,42.00
2023-03-04T05:26:40.812Z,36.00
2023-03-04T05:29:08.859Z,33.00
2023-03-04T05:31:37.004Z,31.00
2023-03-04T05:34:05.040Z,30.50
2023-03-04T05:40:02.255Z,38.00
2023-03-04T05:42:30.411Z,40.50
2023-03-04T05:45:02.242Z,31.00
2023-03-04T05:47:30.198Z,37.00
2023-03-04T05:49:58.337Z,33.00
2023-03-04T05:52:26.647Z,38.00
2023-03-04T05:54:54.784Z,35.00
2023-03-04T05:57:22.917Z,23.50
2023-03-04T05:59:51.203Z,29.00
2023-03-04T06:02:19.428Z,28.50
2023-03-04T06:04:47.588Z,24.00
2023-03-04T06:07:58.769Z,26.00
2023-03-04T06:10:27.124Z,23.00
2023-03-04T06:12:55.280Z,29.00
2023-03-04T06:16:23.141Z,33.00
2023-03-04T06:19:31.752Z,27.50
2023-03-04T06:21:59.943Z,33.00
2023-03-04T06:24:28.446Z,35.00
2023-03-04T06:26:57.338Z,24.50
2023-03-04T06:29:30.799Z,32.00
2023-03-04T06:31:59.320Z,30.00
2023-03-04T06:34:28.307Z,29.00
2023-03-04T06:36:56.429Z,28.00
2023-03-04T06:39:44.956Z,24.50
2023-03-04T06:42:13.636Z,27.00
2023-03-04T06:44:41.782Z,28.50
2023-03-04T06:47:10.162Z,31.00
2023-03-04T06:50:35.301Z,36.00
2023-03-04T06:53:03.914Z,25.00
2023-03-04T06:55:32.112Z,24.00
2023-03-04T06:58:00.155Z,28.00
2023-03-04T07:00:28.557Z,18.00
2023-03-04T07:02:58.649Z,26.50
2023-03-04T07:05:26.913Z,26.50
2023-03-04T07:07:55.551Z,22.00
2023-03-04T07:10:23.607Z,19.50
2023-03-04T07:12:51.574Z,30.00
2023-03-04T07:15:19.639Z,32.00
2023-03-04T07:17:47.740Z,27.50
2023-03-04T07:20:39.689Z,26.00
2023-03-04T07:23:08.674Z,32.00
2023-03-04T07:25:36.781Z,26.00
2023-03-04T07:28:05.071Z,33.00
2023-03-04T07:30:44.141Z,50.50
2023-03-04T07:33:13.915Z,37.00
2023-03-04T07:35:43.105Z,37.50
2023-03-04T07:38:11.405Z,37.00
2023-03-04T07:40:42.128Z,37.00
2023-03-04T07:43:12.694Z,33.00
2023-03-04T07:45:40.969Z,46.00
2023-03-04T07:48:09.019Z,44.00
2023-03-04T07:53:05.096Z,32.00
2023-03-04T07:55:33.345Z,30.00
2023-03-04T07:58:03.583Z,30.00
2023-03-04T08:00:52.198Z,33.00
2023-03-04T08:03:20.288Z,29.00
2023-03-04T08:05:49.151Z,23.50
2023-03-04T08:08:17.825Z,26.50
2023-03-04T08:10:46.004Z,23.00
2023-03-04T08:13:14.059Z,26.50
2023-03-04T08:15:43.173Z,26.00
2023-03-04T08:18:11.309Z,28.00
2023-03-04T08:21:35.674Z,30.00
2023-03-04T08:24:08.963Z,29.50
2023-03-04T08:26:42.850Z,19.00
2023-03-04T08:29:14.268Z,24.50
2023-03-04T08:32:42.524Z,26.00
2023-03-04T08:35:10.933Z,30.00
2023-03-04T08:37:39.013Z,30.00
2023-03-04T08:40:27.419Z,25.00
2023-03-04T08:42:57.260Z,27.00
2023-03-04T08:45:26.033Z,28.00
2023-03-04T08:47:54.038Z,29.00
2023-03-04T08:50:46.505Z,26.00
2023-03-04T08:54:03.614Z,31.00
2023-03-04T08:57:32.734Z,25.00
2023-03-04T09:04:17.867Z,27.00
2023-03-04T09:07:26.259Z,29.50
2023-03-04T09:10:54.619Z,25.00
2023-03-04T09:14:25.060Z,30.00
2023-03-04T09:16:53.424Z,28.00
2023-03-04T09:19:21.421Z,23.50
2023-03-04T09:22:49.286Z,31.67
2023-03-04T09:25:57.653Z,33.00
2023-03-04T09:28:25.824Z,22.00
2023-03-04T09:30:54.015Z,41.00
2023-03-04T09:33:59.396Z,49.00
2023-03-04T09:37:47.772Z,45.00
2023-03-04T09:41:19.999Z,44.50
2023-03-04T09:45:03.455Z,48.33
2023-03-04T09:47:55.954Z,31.50
2023-03-04T09:51:19.092Z,39.00
2023-03-04T09:54:57.923Z,44.00
2023-03-04T09:58:44.004Z,44.00
2023-03-04T10:02:05.377Z,34.00
2023-03-04T10:05:39.285Z,44.00
2023-03-04T10:08:54.804Z,33.00
2023-03-04T10:14:59.180Z,27.50
2023-03-04T10:17:53.809Z,33.00
2023-03-04T10:20:24.824Z,36.00
2023-03-04T10:23:09.343Z,30.00
2023-03-04T10:25:44.555Z,37.50
2023-03-04T10:28:20.356Z,42.00
2023-03-04T10:31:07.433Z,33.00
2023-03-04T10:34:35.911Z,42.00
2023-03-04T10:37:46.025Z,44.00
2023-03-04T10:40:39.111Z,29.00
2023-03-04T10:43:15.422Z,44.00
2023-03-04T10:45:44.643Z,43.00
2023-03-04T10:48:21.698Z,41.50
2023-03-04T10:50:50.267Z,36.00
2023-03-04T10:53:43.444Z,36.00
2023-03-04T10:56:31.628Z,38.50
2023-03-04T10:59:37.319Z,55.00
2023-03-04T11:05:57.114Z,48.00
2023-03-04T11:08:27.109Z,45.00
2023-03-04T11:10:55.055Z,37.00
2023-03-04T11:13:25.601Z,43.00
2023-03-04T11:17:02.391Z,36.50
2023-03-04T11:19:40.063Z,47.00
2023-03-04T11:22:15.918Z,37.00
2023-03-04T11:24:44.217Z,41.00
2023-03-04T11:30:00.944Z,42.00
2023-03-04T11:32:40.612Z,42.00
2023-03-04T11:35:28.812Z,40.00
2023-03-04T11:38:10.362Z,41.50
2023-03-04T11:40:46.188Z,50.00
2023-03-04T11:43:37.776Z,52.00
2023-03-04T11:46:48.542Z,53.00
2023-03-04T11:49:42.094Z,53.00
2023-03-04T11:52:28.370Z,54.00
2023-03-04T11:55:08.433Z,51.00
2023-03-04T12:01:20.636Z,56.00
2023-03-04T12:04:13.795Z,50.50
2023-03-04T12:06:57.114Z,44.50
2023-03-04T12:09:52.423Z,45.50
2023-03-04T12:12:39.315Z,44.00
2023-03-04T12:15:39.831Z,53.00
2023-03-04T12:19:17.335Z,48.50
2023-03-04T12:23:17.132Z,51.00
2023-03-04T12:27:05.392Z,47.00
2023-03-04T12:30:05.763Z,48.00
2023-03-04T12:32:44.308Z,46.00
2023-03-04T12:35:30.283Z,36.50
2023-03-04T12:39:10.228Z,48.00
2023-03-04T12:43:10.892Z,40.50
2023-03-04T12:46:17.858Z,45.00
2023-03-04T12:49:16.291Z,39.00
2023-03-04T12:52:35.010Z,44.00
2023-03-04T12:55:10.684Z,44.00
2023-03-04T12:58:38.864Z,42.00
2023-03-04T13:01:18.933Z,40.00
2023-03-04T13:03:53.403Z,40.50
2023-03-04T13:06:49.488Z,40.00
2023-03-04T13:10:39.331Z,36.00
2023-03-04T13:14:43.780Z,42.00
2023-03-04T13:17:56.547Z,45.00
2023-03-04T13:20:30.776Z,45.00
2023-03-04T13:23:13.992Z,40.00
2023-03-04T13:28:24.982Z,33.50
2023-03-04T13:30:56.065Z,37.00
2023-03-04T13:33:24.115Z,38.50
2023-03-04T13:38:38.629Z,39.00
2023-03-04T13:41:23.037Z,43.00
2023-03-04T13:43:54.875Z,36.00
2023-03-04T13:46:24.065Z,39.50
2023-03-04T13:51:45.173Z,35.00
2023-03-04T13:56:47.667Z,43.00
2023-03-04T13:59:27.949Z,33.00
2023-03-04T14:03:02.124Z,35.00
2023-03-04T14:05:30.804Z,28.50
2023-03-04T14:08:18.131Z,22.00
2023-03-04T14:11:46.024Z,28.67
2023-03-04T14:14:21.247Z,42.50
2023-03-04T14:16:53.647Z,37.50
2023-03-04T14:19:26.745Z,43.00
2023-03-04T14:21:55.409Z,31.00
2023-03-04T14:24:24.577Z,26.00
2023-03-04T14:27:13.288Z,31.00
2023-03-04T14:29:41.415Z,26.00
2023-03-04T14:35:24.324Z,16.50
2023-03-04T14:38:03.709Z,21.00
2023-03-04T14:40:42.195Z,23.00
2023-03-04T14:43:18.944Z,21.00
2023-03-04T14:45:51.607Z,20.00
2023-03-04T14:48:25.222Z,29.00
2023-03-04T14:50:55.504Z,23.00
2023-03-04T14:53:32.017Z,26.00
2023-03-04T14:56:02.173Z,25.00
2023-03-04T14:58:54.265Z,17.00
2023-03-04T15:01:29.613Z,24.00
2023-03-04T15:04:11.647Z,28.00
2023-03-04T15:06:53.695Z,26.50
2023-03-04T15:09:23.123Z,24.00
2023-03-04T15:11:53.158Z,26.50
2023-03-04T15:14:50.668Z,21.00
2023-03-04T15:17:37.910Z,25.00
2023-03-04T15:20:06.047Z,28.00
2023-03-04T15:22:34.814Z,37.00
2023-03-04T15:25:03.798Z,30.00
2023-03-04T15:28:32.315Z,29.00
2023-03-04T15:31:00.444Z,28.50
2023-03-04T15:34:28.677Z,29.50
2023-03-04T15:37:23.760Z,39.50
2023-03-04T15:39:52.256Z,28.00
2023-03-04T15:42:20.866Z,43.50
2023-03-04T15:44:48.935Z,39.00
2023-03-04T15:47:17.199Z,43.50
2023-03-04T15:49:47.716Z,38.00
2023-03-04T15:52:18.762Z,44.00
2023-03-04T15:57:26.109Z,45.00
2023-03-04T15:59:54.252Z,43.50
2023-03-04T16:04:52.207Z,47.00
2023-03-04T16:07:24.646Z,39.00
2023-03-04T16:09:58.400Z,40.00
2023-03-04T16:12:27.795Z,40.00
2023-03-04T16:14:55.938Z,35.00
2023-03-04T16:17:24.300Z,36.00
2023-03-04T16:19:52.371Z,44.00
2023-03-04T16:22:26.270Z,47.00
2023-03-04T16:24:55.451Z,49.00
2023-03-04T16:27:24.694Z,34.50
2023-03-04T16:29:52.851Z,46.00
2023-03-04T16:34:50.546Z,37.00
2023-03-04T16:39:49.304Z,37.00
2023-03-04T16:42:22.093Z,43.00
2023-03-04T16:45:50.303Z,37.00
2023-03-04T16:49:39.271Z,38.50
2023-03-04T16:52:14.884Z,44.00
2023-03-04T16:57:51.572Z,41.00
2023-03-04T17:00:21.539Z,38.00
2023-03-04T17:03:01.184Z,44.00
2023-03-04T17:10:26.781Z,43.00
2023-03-04T17:16:23.568Z,39.00
2023-03-04T17:19:11.591Z,35.00
2023-03-04T17:21:40.022Z,41.00
2023-03-04T17:24:11.966Z,38.00
2023-03-04T17:26:40.789Z,47.00
2023-03-04T17:29:09.778Z,43.00
2023-03-04T17:31:37.842Z,32.00
2023-03-04T17:34:06.022Z,47.00
2023-03-04T17:36:34.435Z,43.00
2023-03-04T17:39:04.302Z,40.00
2023-03-04T17:41:34.364Z,41.00
2023-03-04T17:44:04.254Z,39.00
2023-03-04T17:46:33.617Z,42.00
2023-03-04T17:49:02.019Z,36.00
2023-03-04T17:51:37.699Z,43.00
2023-03-04T17:54:08.664Z,40.00
2023-03-04T17:56:40.715Z,37.00
2023-03-04T17:59:12.656Z,42.00
2023-03-04T18:04:09.105Z,40.00
2023-03-04T18:06:37.187Z,44.00
2023-03-04T18:09:06.512Z,42.00
2023-03-04T18:15:04.833Z,45.00
2023-03-04T18:18:32.967Z,47.00
2023-03-04T18:22:23.637Z,39.50
2023-03-04T18:24:51.754Z,44.00
2023-03-04T18:27:19.917Z,41.00
2023-03-04T18:29:48.016Z,31.00
2023-03-04T18:32:16.147Z,30.00
2023-03-04T18:34:44.387Z,25.00
2023-03-04T18:37:14.080Z,29.00
2023-03-04T18:39:42.261Z,29.00
2023-03-04T18:42:10.400Z,38.00
2023-03-04T18:44:38.681Z,33.00
2023-03-04T18:47:07.660Z,33.50
2023-03-04T18:49:35.683Z,32.00
2023-03-04T18:52:03.766Z,29.50
2023-03-04T18:54:31.829Z,32.33
2023-03-04T18:57:06.970Z,26.00
2023-03-04T18:59:48.537Z,25.50
2023-03-04T19:02:53.101Z,34.00
2023-03-04T19:05:29.117Z,29.00
2023-03-04T19:07:57.522Z,39.00
2023-03-04T19:10:26.786Z,40.00
2023-03-04T19:12:57.465Z,40.50
2023-03-04T19:15:26.348Z,42.00
2023-03-04T19:17:54.309Z,35.50
2023-03-04T19:20:22.388Z,39.50
2023-03-04T19:22:51.117Z,32.00
2023-03-04T19:27:47.115Z,34.00
2023-03-04T19:30:15.270Z,41.50
2023-03-04T19:32:43.753Z,41.00
2023-03-04T19:35:12.102Z,36.00
2023-03-04T19:37:40.120Z,31.00
2023-03-04T19:40:09.193Z,36.00
2023-03-04T19:42:37.520Z,40.00
2023-03-04T19:45:09.713Z,35.00
2023-03-04T19:47:39.098Z,36.50
2023-03-04T19:52:36.320Z,18.00
2023-03-04T19:55:05.354Z,23.00
2023-03-04T19:57:33.788Z,26.00
2023-03-04T20:00:02.038Z,26.50
2023-03-04T20:02:32.754Z,26.00
2023-03-04T20:05:00.861Z,23.00
2023-03-04T20:07:28.913Z,22.00
2023-03-04T20:09:57.133Z,22.00
2023-03-04T20:12:25.175Z,30.00
2023-03-04T20:14:53.386Z,27.00
2023-03-04T20:17:21.503Z,33.50
2023-03-04T20:19:49.648Z,29.50
2023-03-04T20:22:17.845Z,28.00
2023-03-04T20:24:45.925Z,30.00
2023-03-04T20:27:15.571Z,32.00
2023-03-04T20:29:44.616Z,26.00
2023-03-04T20:32:13.069Z,26.00
2023-03-04T20:34:41.341Z,21.00
2023-03-04T20:37:09.424Z,21.00
2023-03-04T20:39:37.629Z,21.00
2023-03-04T20:42:06.741Z,16.00
2023-03-04T20:44:35.600Z,13.50
2023-03-04T20:47:04.364Z,14.00
2023-03-04T20:49:32.473Z,13.00
2023-03-04T20:52:08.615Z,17.00
2023-03-04T20:54:38.795Z,13.00
2023-03-04T20:57:08.217Z,8.00
2023-03-04T20:59:38.340Z,15.50
2023-03-04T21:02:08.357Z,10.00
2023-03-04T21:04:36.546Z,4.00
2023-03-04T21:07:04.585Z,4.00
2023-03-04T21:09:32.610Z,4.00
2023-03-04T21:12:01.148Z,4.00
2023-03-04T21:17:02.234Z,5.00
2023-03-04T21:19:33.228Z,4.00
2023-03-04T21:22:01.939Z,4.00
2023-03-04T21:24:32.953Z,2.00
2023-03-04T21:27:02.117Z,2.00
2023-03-04T21:29:30.268Z,4.00
2023-03-04T21:32:23.798Z,5.00
2023-03-04T21:34:55.009Z,5.00
2023-03-04T21:37:24.819Z,2.00
2023-03-04T21:39:54.498Z,5.50
2023-03-04T21:42:22.735Z,9.00
2023-03-04T21:44:51.845Z,8.50
2023-03-04T21:47:21.347Z,9.00
2023-03-04T21:49:49.570Z,7.00
2023-03-04T21:52:19.664Z,8.00
2023-03-04T21:54:48.213Z,7.00
2023-03-04T21:57:16.704Z,8.00
2023-03-04T21:59:45.392Z,9.00
2023-03-04T22:02:18.952Z,14.00
2023-03-04T22:04:48.452Z,8.00
2023-03-04T22:07:16.836Z,10.00
2023-03-04T22:09:44.947Z,10.00
2023-03-04T22:12:14.901Z,8.00
2023-03-04T22:14:43.854Z,8.00
2023-03-04T22:17:12.124Z,7.00
2023-03-04T22:19:40.452Z,9.00
2023-03-04T22:22:08.634Z,5.00
2023-03-04T22:24:36.758Z,11.00
2023-03-04T22:27:04.748Z,11.00
2023-03-04T22:29:32.838Z,12.50
2023-03-04T22:32:01.172Z,16.00
2023-03-04T22:34:29.239Z,11.00
2023-03-04T22:36:57.350Z,16.00
2023-03-04T22:39:25.384Z,9.00
2023-03-04T22:42:13.422Z,10.00
2023-03-04T22:44:41.537Z,10.00
2023-03-04T22:47:30.795Z,10.00
2023-03-04T22:54:49.818Z,9.00
2023-03-04T22:57:20.939Z,9.00
2023-03-04T23:02:17.526Z,10.00
2023-03-04T23:04:46.029Z,9.00
2023-03-04T23:07:28.533Z,13.00
2023-03-04T23:10:05.599Z,11.00
2023-03-04T23:12:35.988Z,12.00
2023-03-04T23:15:09.017Z,14.00
2023-03-04T23:17:55.232Z,9.00
2023-03-04T23:20:25.746Z,10.00
2023-03-04T23:22:53.871Z,14.50
2023-03-04T23:25:22.140Z,12.00
2023-03-04T23:28:02.904Z,11.00
2023-03-04T23:31:18.780Z,12.00
2023-03-04T23:34:16.907Z,8.00
2023-03-04T23:36:47.349Z,13.50
2023-03-04T23:39:16.295Z,12.50
2023-03-04T23:41:44.994Z,14.50
2023-03-04T23:44:13.680Z,10.00
2023-03-04T23:46:42.603Z,14.00
2023-03-04T23:49:14.426Z,13.00
2023-03-04T23:51:44.603Z,9.00
2023-03-04T23:54:15.475Z,8.00
2023-03-04T23:56:43.908Z,10.00
2023-03-04T23:59:12.759Z,10.00
